Time;durP1;ratioP1;P1;durP2;ratioP2;P2;SDS_P1;SDS_P2;PMS_P1;PMS_P2;Temp;Humidity;BMP_temperature;BMP_pressure;BME280_temperature;BME280_humidity;BME280_pressure;Samples;Min_cycle;Max_cycle;Signal;HPM_P1;HPM_P2
2023/07/11 00:02:20;;;;;;;26.88;17.15;;;17.30;99.90;;;;;;4974702;28;20211;-91
2023/07/11 00:04:47;;;;;;;30.25;16.48;;;17.20;99.90;;;;;;4965658;28;20220;-91
2023/07/11 00:07:14;;;;;;;27.10;16.67;;;17.20;99.90;;;;;;4970106;28;20252;-91
2023/07/11 00:09:41;;;;;;;25.40;16.98;;;17.20;99.90;;;;;;4969124;28;20207;-91
2023/07/11 00:12:08;;;;;;;29.33;16.77;;;17.20;99.90;;;;;;4972950;28;20199;-90
2023/07/11 00:14:36;;;;;;;26.40;17.00;;;17.10;99.90;;;;;;4976174;28;20211;-91
2023/07/11 00:17:05;;;;;;;33.88;17.65;;;17.10;99.90;;;;;;4975229;28;20575;-91
2023/07/11 00:19:47;;;;;;;27.42;16.77;;;17.00;99.90;;;;;;4970680;28;20654;-92
2023/07/11 00:22:14;;;;;;;28.00;16.67;;;17.00;99.90;;;;;;4976992;28;20314;-92
2023/07/11 00:24:41;;;;;;;24.70;17.25;;;17.00;99.90;;;;;;4978975;28;20206;-90
2023/07/11 00:27:08;;;;;;;27.50;16.63;;;16.90;99.90;;;;;;4975451;28;20242;-92
2023/07/11 00:29:35;;;;;;;31.77;17.10;;;16.90;99.90;;;;;;4974830;28;20663;-92
2023/07/11 00:32:02;;;;;;;29.35;17.75;;;16.90;99.90;;;;;;4976729;28;20227;-91
2023/07/11 00:34:29;;;;;;;24.92;17.00;;;16.90;99.90;;;;;;4981082;28;20196;-91
2023/07/11 00:36:58;;;;;;;29.17;16.83;;;16.90;1.00;;;;;;4971309;28;20216;-92
2023/07/11 00:39:28;;;;;;;30.05;16.10;;;16.90;1.00;;;;;;4973183;28;20254;-90
2023/07/11 00:41:55;;;;;;;27.02;17.45;;;16.90;1.00;;;;;;4977491;28;20258;-91
2023/07/11 00:44:23;;;;;;;26.13;16.20;;;16.90;1.00;;;;;;4973136;28;20214;-92
2023/07/11 00:46:51;;;;;;;28.70;16.13;;;16.90;1.00;;;;;;4973888;28;20281;-92
2023/07/11 00:49:20;;;;;;;27.20;16.77;;;16.90;1.00;;;;;;4974870;28;20199;-91
2023/07/11 00:51:52;;;;;;;36.70;16.70;;;16.90;1.00;;;;;;4981426;28;20271;-92
2023/07/11 00:54:25;;;;;;;24.17;15.85;;;16.90;1.00;;;;;;4977591;28;20644;-93
2023/07/11 00:56:52;;;;;;;23.77;15.88;;;16.80;1.00;;;;;;4976325;28;20613;-92
2023/07/11 00:59:23;;;;;;;24.98;15.68;;;16.90;1.00;;;;;;4986811;28;20632;-91
2023/07/11 01:02:10;;;;;;;22.45;15.00;;;16.80;1.00;;;;;;4979739;28;20600;-91
2023/07/11 01:04:38;;;;;;;33.67;15.25;;;16.80;1.00;;;;;;4976900;28;20200;-91
2023/07/11 01:07:08;;;;;;;31.13;15.65;;;16.80;1.00;;;;;;4979402;28;20204;-92
2023/07/11 01:09:36;;;;;;;34.03;16.05;;;16.80;1.00;;;;;;4977546;28;20702;-92
2023/07/11 01:12:06;;;;;;;33.17;14.82;;;16.80;1.00;;;;;;4979659;28;20222;-91
2023/07/11 01:14:34;;;;;;;21.27;14.73;;;16.70;1.00;;;;;;4987331;28;20228;-91
2023/07/11 01:17:01;;;;;;;29.77;15.18;;;16.70;1.00;;;;;;4985408;28;20253;-91
2023/07/11 01:19:28;;;;;;;24.55;14.35;;;16.70;1.00;;;;;;4977591;28;20266;-91
2023/07/11 01:21:56;;;;;;;23.27;13.73;;;16.70;1.00;;;;;;4976595;28;20302;-91
2023/07/11 01:24:23;;;;;;;25.25;14.43;;;16.70;1.00;;;;;;4978673;28;20207;-90
2023/07/11 01:26:50;;;;;;;25.30;14.18;;;16.70;1.00;;;;;;4976151;28;20247;-91
2023/07/11 01:29:17;;;;;;;24.90;13.82;;;16.70;1.00;;;;;;4974241;28;20214;-91
2023/07/11 01:31:44;;;;;;;25.25;14.73;;;16.70;1.00;;;;;;4977545;28;20223;-92
2023/07/11 01:34:11;;;;;;;25.70;14.68;;;16.70;1.00;;;;;;4979144;28;20262;-92
2023/07/11 01:36:38;;;;;;;22.48;13.45;;;16.70;1.00;;;;;;4975931;28;20247;-91
2023/07/11 01:39:07;;;;;;;32.55;15.18;;;16.60;1.00;;;;;;4976664;28;20238;-92
2023/07/11 01:41:35;;;;;;;27.52;13.98;;;16.60;1.00;;;;;;4978428;28;20203;-92
2023/07/11 01:44:03;;;;;;;25.48;14.18;;;16.60;1.00;;;;;;4980015;28;20569;-91
2023/07/11 01:46:30;;;;;;;25.83;14.43;;;16.60;1.00;;;;;;4976366;28;20693;-91
2023/07/11 01:48:57;;;;;;;29.15;14.30;;;16.50;1.00;;;;;;4976678;28;20299;-92
2023/07/11 01:51:24;;;;;;;32.60;14.40;;;16.60;1.00;;;;;;4976413;28;20203;-91
2023/07/11 01:53:51;;;;;;;32.67;15.13;;;16.60;1.00;;;;;;4984159;28;20651;-91
2023/07/11 01:56:19;;;;;;;23.13;14.63;;;16.50;1.00;;;;;;4976691;28;20537;-92
2023/07/11 01:58:46;;;;;;;29.27;14.57;;;16.50;1.00;;;;;;4976297;28;20256;-91
2023/07/11 02:01:13;;;;;;;32.58;14.15;;;16.40;99.90;;;;;;4976931;28;20257;-92
2023/07/11 02:03:40;;;;;;;26.73;15.02;;;16.40;99.90;;;;;;4980118;28;20220;-92
2023/07/11 02:06:07;;;;;;;29.60;13.57;;;16.40;99.90;;;;;;4975392;28;20825;-93
2023/07/11 02:08:34;;;;;;;23.40;13.57;;;16.40;99.90;;;;;;4977044;28;20259;-91
2023/07/11 02:11:01;;;;;;;32.00;13.25;;;16.30;99.90;;;;;;4978061;28;20203;-91
2023/07/11 02:13:29;;;;;;;25.55;14.32;;;16.30;99.90;;;;;;4976103;28;20199;-91
2023/07/11 02:15:56;;;;;;;31.58;14.80;;;16.30;99.90;;;;;;4978769;28;20206;-92
2023/07/11 02:18:23;;;;;;;35.92;13.93;;;16.20;99.90;;;;;;4983650;28;20269;-91
2023/07/11 02:20:50;;;;;;;33.45;14.20;;;16.20;1.00;;;;;;4979356;28;20203;-91
2023/07/11 02:23:17;;;;;;;27.20;12.65;;;16.20;99.90;;;;;;4976751;28;20226;-92
2023/07/11 02:25:44;;;;;;;36.22;13.05;;;16.20;99.90;;;;;;4975647;28;20288;-91
2023/07/11 02:28:11;;;;;;;21.67;13.20;;;16.10;99.90;;;;;;4989998;28;20273;-92
2023/07/11 02:30:40;;;;;;;27.45;13.38;;;16.10;99.90;;;;;;4979786;28;20202;-90
2023/07/11 02:33:07;;;;;;;24.33;11.68;;;;;;;;;;4979442;28;20236;-92
2023/07/11 02:35:34;;;;;;;23.52;12.27;;;15.90;99.90;;;;;;4975238;28;20212;-91
2023/07/11 02:38:01;;;;;;;26.17;12.80;;;15.90;99.90;;;;;;4986313;28;20226;-91
2023/07/11 02:40:28;;;;;;;26.45;13.50;;;15.90;99.90;;;;;;4976567;28;20206;-93
2023/07/11 02:42:55;;;;;;;29.38;15.68;;;15.80;98.90;;;;;;4979857;28;20205;-93
2023/07/11 02:45:22;;;;;;;28.30;13.63;;;15.80;99.90;;;;;;4979881;28;20206;-94
2023/07/11 02:47:50;;;;;;;27.00;13.95;;;15.70;99.90;;;;;;4979298;28;20194;-91
2023/07/11 02:50:17;;;;;;;26.58;13.43;;;15.80;99.90;;;;;;4975826;28;20202;-93
2023/07/11 02:52:44;;;;;;;23.45;12.90;;;15.70;99.90;;;;;;4975732;28;20200;-92
2023/07/11 02:55:11;;;;;;;21.08;12.57;;;15.70;99.90;;;;;;4972722;28;20206;-93
2023/07/11 02:57:40;;;;;;;23.98;12.98;;;15.70;99.90;;;;;;4977413;28;20646;-90
2023/07/11 03:00:09;;;;;;;19.00;12.50;;;15.70;99.90;;;;;;4975205;28;20205;-92
2023/07/11 03:02:36;;;;;;;26.80;13.32;;;15.70;99.90;;;;;;4976807;28;20237;-91
2023/07/11 03:05:05;;;;;;;23.35;13.65;;;15.70;99.90;;;;;;4980162;28;20201;-91
2023/07/11 03:07:32;;;;;;;27.13;14.32;;;15.70;99.90;;;;;;4982340;28;20303;-91
2023/07/11 03:09:59;;;;;;;30.67;13.80;;;15.70;99.90;;;;;;4981218;28;20213;-92
2023/07/11 03:12:26;;;;;;;24.73;14.37;;;15.70;99.90;;;;;;4978474;28;20264;-93
2023/07/11 03:14:53;;;;;;;26.20;13.18;;;15.70;99.90;;;;;;4995357;28;20754;-91
2023/07/11 03:17:20;;;;;;;23.65;12.70;;;15.70;99.90;;;;;;4975171;28;20197;-91
2023/07/11 03:19:47;;;;;;;20.47;12.47;;;15.70;99.90;;;;;;4976300;28;20589;-91
2023/07/11 03:22:17;;;;;;;23.73;14.35;;;15.80;99.90;;;;;;4977060;28;20232;-92
2023/07/11 03:24:44;;;;;;;20.17;12.50;;;15.80;99.90;;;;;;4972958;28;20209;-92
2023/07/11 03:27:11;;;;;;;25.98;11.32;;;15.80;99.90;;;;;;4975172;28;20248;-91
2023/07/11 03:29:38;;;;;;;16.52;10.32;;;15.80;90.10;;;;;;4975527;28;20264;-91
2023/07/11 03:32:06;;;;;;;20.95;10.70;;;15.80;1.00;;;;;;4974834;28;20208;-92
2023/07/11 03:34:33;;;;;;;18.95;10.45;;;15.90;1.00;;;;;;4972251;28;20257;-90
2023/07/11 03:37:00;;;;;;;27.38;9.35;;;15.80;1.00;;;;;;4974013;28;20229;-91
2023/07/11 03:39:28;;;;;;;18.35;9.65;;;15.80;1.00;;;;;;4982392;28;20240;-90
2023/07/11 03:41:55;;;;;;;27.55;9.55;;;15.80;1.00;;;;;;4980298;28;20203;-90
2023/07/11 03:44:22;;;;;;;22.45;9.65;;;15.80;1.00;;;;;;4976389;28;20197;-90
2023/07/11 03:46:49;;;;;;;17.60;12.00;;;15.80;1.00;;;;;;4974444;28;20778;-91
2023/07/11 03:49:16;;;;;;;21.45;12.50;;;15.90;1.00;;;;;;4972995;28;20209;-91
2023/07/11 03:51:43;;;;;;;18.05;11.13;;;15.90;75.70;;;;;;4974548;28;20206;-91
2023/07/11 03:54:10;;;;;;;21.58;10.27;;;16.10;99.90;;;;;;4975525;28;20229;-91
2023/07/11 03:56:38;;;;;;;19.80;11.27;;;16.20;99.90;;;;;;4977000;28;20257;-91
2023/07/11 03:59:05;;;;;;;13.02;10.02;;;16.30;99.90;;;;;;4980738;28;20202;-90
2023/07/11 04:01:32;;;;;;;18.48;11.00;;;16.40;99.90;;;;;;4977855;28;20698;-91
2023/07/11 04:03:59;;;;;;;19.45;10.00;;;16.70;1.00;;;;;;4975919;28;20241;-91
2023/07/11 04:06:26;;;;;;;15.38;9.70;;;17.60;1.00;;;;;;4978325;28;20224;-91
2023/07/11 04:08:53;;;;;;;16.67;8.80;;;18.50;99.90;;;;;;4977527;28;20618;-91
2023/07/11 04:11:20;;;;;;;13.23;7.35;;;19.30;1.00;;;;;;4975677;28;20209;-91
2023/07/11 04:13:48;;;;;;;11.48;7.03;;;20.10;99.90;;;;;;4982569;28;20203;-91
2023/07/11 04:16:15;;;;;;;12.43;6.45;;;20.70;99.90;;;;;;4974975;28;20236;-91
2023/07/11 04:18:42;;;;;;;11.85;6.47;;;21.10;99.90;;;;;;4974358;28;20196;-92
2023/07/11 04:21:09;;;;;;;7.55;5.45;;;21.50;1.00;;;;;;4979196;28;20294;-91
2023/07/11 04:23:36;;;;;;;13.93;6.15;;;21.90;99.90;;;;;;4992068;28;20200;-92
2023/07/11 04:26:03;;;;;;;11.07;6.18;;;22.30;1.00;;;;;;4983431;28;20246;-92
2023/07/11 04:28:30;;;;;;;13.10;5.93;;;22.70;1.00;;;;;;4982063;28;20215;-92
2023/07/11 04:30:58;;;;;;;14.40;5.90;;;22.90;99.90;;;;;;4974662;28;20242;-92
2023/07/11 04:33:25;;;;;;;8.75;5.50;;;23.20;1.00;;;;;;4977548;28;20207;-91
2023/07/11 04:35:52;;;;;;;11.55;5.50;;;23.40;1.00;;;;;;4976410;28;20251;-92
2023/07/11 04:38:19;;;;;;;10.40;5.30;;;23.60;99.90;;;;;;4986056;28;20195;-93
2023/07/11 04:40:46;;;;;;;11.82;5.38;;;23.80;1.00;;;;;;4977970;28;20203;-92
2023/07/11 04:43:13;;;;;;;19.90;5.63;;;23.70;99.90;;;;;;4976604;28;20575;-92
2023/07/11 04:45:40;;;;;;;13.02;5.25;;;23.70;4.40;;;;;;4977909;28;20200;-92
2023/07/11 04:48:08;;;;;;;8.38;4.78;;;23.90;1.00;;;;;;4972951;28;20259;-92
2023/07/11 04:50:35;;;;;;;10.95;5.18;;;24.20;1.00;;;;;;4977288;28;20219;-91
2023/07/11 04:53:03;;;;;;;11.00;5.20;;;24.40;99.90;;;;;;4991525;28;20237;-91
2023/07/11 04:55:30;;;;;;;18.50;11.77;;;24.60;99.90;;;;;;4979112;28;20218;-89
2023/07/11 04:57:57;;;;;;;98.85;41.15;;;24.80;99.90;;;;;;4982477;28;20225;-90
2023/07/11 05:00:24;;;;;;;77.80;31.75;;;25.00;99.90;;;;;;4977870;28;20196;-91
2023/07/11 05:02:51;;;;;;;210.85;85.35;;;25.10;99.90;;;;;;4980101;28;20203;-89
2023/07/11 05:05:19;;;;;;;316.70;118.15;;;25.10;1.00;;;;;;4976149;28;20690;-91
2023/07/11 05:07:46;;;;;;;45.53;19.25;;;25.10;1.00;;;;;;4985796;28;20254;-91
2023/07/11 05:10:13;;;;;;;222.25;81.18;;;25.00;1.00;;;;;;4982085;28;20228;-90
2023/07/11 05:12:40;;;;;;;195.68;74.60;;;24.50;1.00;;;;;;4975915;28;20199;-91
2023/07/11 05:15:11;;;;;;;223.48;82.82;;;24.00;1.80;;;;;;4972510;28;20212;-89
2023/07/11 05:17:38;;;;;;;153.20;64.78;;;23.40;99.90;;;;;;4973259;28;20283;-89
2023/07/11 05:20:06;;;;;;;187.85;77.75;;;22.80;99.90;;;;;;4979360;28;20267;-89
2023/07/11 05:22:35;;;;;;;114.25;52.17;;;22.40;1.00;;;;;;4975539;28;20227;-90
2023/07/11 05:25:01;;;;;;;160.75;78.15;;;22.10;44.10;;;;;;4978480;28;20239;-89
2023/07/11 05:27:28;;;;;;;31.00;16.58;;;21.80;99.90;;;;;;4976792;28;20216;-90
2023/07/11 05:29:55;;;;;;;28.13;16.25;;;21.60;1.00;;;;;;4977390;28;20239;-89
2023/07/11 05:32:22;;;;;;;15.20;8.32;;;21.50;1.00;;;;;;4981260;28;20246;-90
2023/07/11 05:34:49;;;;;;;9.85;6.10;;;21.30;1.00;;;;;;4980145;28;20242;-90
2023/07/11 05:37:16;;;;;;;27.00;12.38;;;21.30;1.00;;;;;;4979106;28;20705;-89
2023/07/11 05:39:45;;;;;;;28.23;13.93;;;21.20;99.90;;;;;;4983122;28;20226;-89
2023/07/11 05:42:12;;;;;;;18.88;9.35;;;21.20;99.90;;;;;;4975511;28;20286;-90
2023/07/11 05:44:39;;;;;;;16.88;10.07;;;21.10;99.90;;;;;;4980168;28;20199;-89
2023/07/11 05:47:06;;;;;;;15.75;8.38;;;21.10;99.90;;;;;;4984159;28;20640;-89
2023/07/11 05:49:33;;;;;;;11.88;5.53;;;21.00;99.90;;;;;;4975663;28;20192;-88
2023/07/11 05:52:00;;;;;;;21.83;11.32;;;21.00;99.90;;;;;;4979215;28;20227;-89
2023/07/11 05:54:27;;;;;;;11.48;6.03;;;20.90;99.90;;;;;;4980134;28;20267;-89
2023/07/11 05:56:55;;;;;;;27.00;11.65;;;20.90;1.00;;;;;;4975913;28;20271;-89
2023/07/11 05:59:23;;;;;;;28.15;13.05;;;20.90;1.00;;;;;;4989226;28;20249;-89
2023/07/11 06:01:50;;;;;;;22.40;12.35;;;20.90;1.00;;;;;;4982367;28;20253;-91
2023/07/11 06:04:17;;;;;;;11.07;4.53;;;20.90;1.00;;;;;;4974076;28;20608;-90
2023/07/11 06:06:44;;;;;;;9.27;5.20;;;21.00;1.00;;;;;;4978288;28;20255;-89
2023/07/11 06:09:13;;;;;;;7.47;4.13;;;21.00;1.00;;;;;;4975495;28;20585;-89
2023/07/11 06:11:41;;;;;;;9.32;4.03;;;21.10;99.90;;;;;;4976287;28;20208;-89
2023/07/11 06:14:10;;;;;;;11.27;5.13;;;21.10;99.90;;;;;;4978435;28;20200;-88
2023/07/11 06:16:38;;;;;;;7.40;4.13;;;21.10;99.90;;;;;;4981869;28;20202;-89
2023/07/11 06:19:05;;;;;;;8.43;3.88;;;21.20;99.90;;;;;;4973089;28;20636;-89
2023/07/11 06:21:32;;;;;;;7.60;3.40;;;21.20;94.90;;;;;;4968435;28;20223;-89
2023/07/11 06:23:59;;;;;;;11.05;3.60;;;21.30;1.00;;;;;;4980882;28;20264;-89
2023/07/11 06:26:26;;;;;;;12.05;4.07;;;21.30;1.00;;;;;;4974681;28;20199;-89
2023/07/11 06:28:53;;;;;;;6.10;3.60;;;21.40;1.00;;;;;;4973437;28;20673;-90
2023/07/11 06:31:22;;;;;;;6.78;3.33;;;21.40;1.00;;;;;;4978330;28;20658;-89
2023/07/11 06:33:50;;;;;;;5.95;3.47;;;21.50;1.00;;;;;;4975704;28;20220;-90
2023/07/11 06:36:17;;;;;;;9.57;3.75;;;21.60;1.00;;;;;;4975278;28;20552;-90
2023/07/11 06:38:45;;;;;;;8.40;3.97;;;21.60;1.00;;;;;;4980146;28;20224;-92
2023/07/11 06:41:15;;;;;;;7.47;4.60;;;21.70;1.00;;;;;;4983947;28;20567;-91
2023/07/11 06:58:25;;;;;;;4.13;2.38;;;21.90;1.00;;;;;;5850583;22;9185982;-96
2023/07/11 07:04:18;;;;;;;6.97;3.42;;;22.70;1.00;;;;;;6256323;22;20201;-96
2023/07/11 07:06:45;;;;;;;3.78;2.65;;;22.70;1.00;;;;;;6338781;22;20193;-96
2023/07/11 07:09:12;;;;;;;4.03;2.38;;;22.80;1.00;;;;;;6318290;22;20170;-96
2023/07/11 07:11:41;;;;;;;3.72;2.42;;;22.80;1.00;;;;;;6320388;22;20194;-96
2023/07/11 07:14:11;;;;;;;4.13;2.33;;;22.90;99.90;;;;;;6320378;22;20174;-96
2023/07/11 07:16:39;;;;;;;11.07;3.10;;;23.00;99.90;;;;;;6320735;22;20554;-96
2023/07/11 07:19:08;;;;;;;4.78;2.75;;;23.00;99.90;;;;;;6320047;22;20170;-96
2023/07/11 07:21:35;;;;;;;5.70;2.30;;;23.10;1.00;;;;;;6320465;22;20227;-95
2023/07/11 07:24:02;;;;;;;5.95;2.22;;;23.10;99.90;;;;;;6319030;22;20223;-96
2023/07/11 07:26:29;;;;;;;5.13;2.40;;;23.10;99.90;;;;;;6317932;22;20186;-96
2023/07/11 07:28:56;;;;;;;6.70;2.72;;;23.10;99.90;;;;;;6317473;22;20213;-95
2023/07/11 07:31:26;;;;;;;5.75;2.58;;;23.10;99.90;;;;;;6317065;22;20171;-95
2023/07/11 07:33:53;;;;;;;4.38;2.45;;;23.20;99.90;;;;;;6317320;22;20223;-95
2023/07/11 07:36:20;;;;;;;6.28;2.40;;;23.30;99.90;;;;;;6317892;22;20181;-96
2023/07/11 07:38:47;;;;;;;4.57;2.40;;;23.30;57.50;;;;;;6317767;22;20194;-96
2023/07/11 07:41:15;;;;;;;6.93;1.98;;;23.30;99.90;;;;;;6318367;22;20177;-95
2023/07/11 07:43:43;;;;;;;5.15;2.20;;;23.40;36.40;;;;;;6318241;22;20167;-95
2023/07/11 07:46:14;;;;;;;4.93;2.20;;;23.50;1.00;;;;;;6319865;22;20182;-96
2023/07/11 07:48:43;;;;;;;5.63;2.33;;;23.50;1.00;;;;;;6322230;22;20177;-95
2023/07/11 07:51:12;;;;;;;7.95;2.30;;;23.40;1.00;;;;;;6321953;22;20675;-96
2023/07/11 07:53:40;;;;;;;4.00;2.70;;;23.40;1.00;;;;;;6322912;22;20170;-95
2023/07/11 07:56:09;;;;;;;4.45;2.20;;;23.50;1.00;;;;;;6319540;22;20166;-95
2023/07/11 07:58:36;;;;;;;4.50;2.40;;;23.60;1.00;;;;;;6312019;22;20542;-96
2023/07/11 08:01:04;;;;;;;10.45;2.38;;;23.60;1.00;;;;;;6311625;22;20163;-96
2023/07/11 08:03:31;;;;;;;2.92;1.63;;;23.70;1.00;;;;;;6311349;22;20175;-95
2023/07/11 08:05:59;;;;;;;3.78;1.77;;;23.80;1.00;;;;;;6310197;22;20199;-96
2023/07/11 08:08:26;;;;;;;4.50;2.10;;;24.00;1.00;;;;;;6310362;22;20166;-96
2023/07/11 08:10:53;;;;;;;4.05;1.83;;;24.20;1.00;;;;;;6310325;22;20636;-94
2023/07/11 08:13:20;;;;;;;5.32;2.25;;;24.20;1.00;;;;;;6309741;22;20179;-95
2023/07/11 08:15:48;;;;;;;4.25;1.80;;;24.20;1.00;;;;;;6310067;22;20163;-95
2023/07/11 08:18:15;;;;;;;3.45;1.80;;;24.20;1.00;;;;;;6310610;22;20167;-96
2023/07/11 08:20:42;;;;;;;5.85;1.80;;;24.20;1.00;;;;;;6310586;22;20171;-96
2023/07/11 08:23:10;;;;;;;4.03;2.10;;;24.20;1.00;;;;;;6309987;22;20178;-96
2023/07/11 08:25:40;;;;;;;7.10;1.80;;;24.10;1.00;;;;;;6311094;22;20170;-96
2023/07/11 08:28:07;;;;;;;4.57;1.77;;;24.20;1.00;;;;;;6314282;22;20557;-95
2023/07/11 08:30:35;;;;;;;9.68;2.80;;;24.40;1.00;;;;;;6312388;22;20167;-96
2023/07/11 08:33:02;;;;;;;4.70;2.58;;;24.50;1.00;;;;;;6312232;22;20176;-96
2023/07/11 08:35:30;;;;;;;4.72;2.25;;;24.80;1.00;;;;;;6313223;22;20178;-96
2023/07/11 08:37:57;;;;;;;3.63;2.00;;;25.00;1.00;;;;;;6311397;22;20175;-96
2023/07/11 08:40:31;;;;;;;5.43;2.53;;;25.20;1.00;;;;;;6310445;22;20224;-96
2023/07/11 08:43:02;;;;;;;3.05;1.75;;;25.30;99.90;;;;;;6310822;22;20517;-96
2023/07/11 08:45:32;;;;;;;7.93;3.40;;;25.40;99.90;;;;;;6311671;22;20158;-96
2023/07/11 08:48:08;;;;;;;5.50;2.50;;;25.50;99.90;;;;;;6313589;22;20155;-96
2023/07/11 08:50:45;;;;;;;4.53;2.25;;;25.80;99.90;;;;;;6315229;22;20147;-96
2023/07/11 08:53:14;;;;;;;4.75;2.53;;;26.10;99.90;;;;;;6317144;22;20597;-96
2023/07/11 08:55:48;;;;;;;6.85;3.20;;;26.20;99.90;;;;;;6313676;22;20175;-95
2023/07/11 08:58:19;;;;;;;1.92;1.50;;;26.20;99.90;;;;;;6314714;22;20176;-96
2023/07/11 09:00:50;;;;;;;2.53;1.70;;;26.00;99.90;;;;;;6317906;22;20643;-96
2023/07/11 09:03:26;;;;;;;4.78;1.70;;;25.90;99.90;;;;;;6321804;22;20461;-96
2023/07/11 09:05:57;;;;;;;4.53;2.10;;;25.80;99.90;;;;;;6319778;22;20194;-96
2023/07/11 09:08:25;;;;;;;13.02;3.25;;;25.90;99.90;;;;;;6318765;22;20225;-96
2023/07/11 09:11:03;;;;;;;4.38;2.28;;;26.10;99.90;;;;;;6316320;22;20226;-96
2023/07/11 09:13:59;;;;;;;4.38;1.83;;;26.20;99.90;;;;;;6318377;22;20170;-96
2023/07/11 09:16:35;;;;;;;2.10;1.63;;;26.10;99.90;;;;;;6302309;22;20167;-96
2023/07/11 09:19:12;;;;;;;3.83;1.70;;;26.20;99.90;;;;;;6317613;22;20491;-96
2023/07/11 09:21:50;;;;;;;2.58;1.75;;;26.30;99.90;;;;;;6323920;22;20155;-96
2023/07/11 09:24:31;;;;;;;3.30;1.65;;;26.20;99.90;;;;;;6319486;22;20196;-95
2023/07/11 09:27:04;;;;;;;3.45;1.95;;;25.90;99.90;;;;;;6317618;22;20183;-96
2023/07/11 09:29:32;;;;;;;5.28;1.55;;;25.90;99.90;;;;;;6319830;22;20207;-96
2023/07/11 09:32:03;;;;;;;4.68;1.70;;;26.00;99.90;;;;;;6320289;22;20197;-95
2023/07/11 09:34:34;;;;;;;3.10;1.83;;;26.20;99.90;;;;;;6322121;22;20181;-96
2023/07/11 09:37:12;;;;;;;5.75;2.10;;;26.30;99.90;;;;;;6323902;22;20233;-96
2023/07/11 09:39:44;;;;;;;5.43;1.80;;;26.30;99.90;;;;;;6323711;22;20151;-96
2023/07/11 09:42:22;;;;;;;3.38;1.50;;;26.30;99.90;;;;;;6328718;22;20162;-96
2023/07/11 09:44:59;;;;;;;3.85;1.63;;;26.30;99.90;;;;;;6327366;22;20155;-96
2023/07/11 09:47:30;;;;;;;4.07;1.77;;;26.20;99.90;;;;;;6328406;22;20186;-96
2023/07/11 09:50:02;;;;;;;3.08;1.30;;;26.10;99.90;;;;;;6329121;22;20171;-96
2023/07/11 09:52:29;;;;;;;3.75;1.55;;;26.30;99.90;;;;;;6322816;22;20155;-96
2023/07/11 09:54:58;;;;;;;5.60;1.58;;;26.30;99.90;;;;;;6330185;22;20167;-96
2023/07/11 09:57:26;;;;;;;4.18;1.38;;;26.20;99.90;;;;;;6325618;22;20163;-96
2023/07/11 10:05:18;;;;;;;4.75;1.25;;;26.80;99.90;;;;;;6263582;23;20195;-96
2023/07/11 10:07:47;;;;;;;2.00;1.05;;;27.00;99.90;;;;;;6264555;23;20658;-96
2023/07/11 10:10:15;;;;;;;3.33;1.50;;;27.20;99.90;;;;;;6264560;23;20190;-96
2023/07/11 10:12:45;;;;;;;3.55;1.35;;;27.40;99.90;;;;;;6262516;23;20172;-96
2023/07/11 10:15:19;;;;;;;2.50;1.40;;;27.60;99.90;;;;;;6257905;23;20172;-96
2023/07/11 10:17:47;;;;;;;2.70;1.30;;;27.70;99.90;;;;;;6255851;23;20222;-96
2023/07/11 10:20:21;;;;;;;2.17;1.30;;;27.70;99.90;;;;;;6257776;23;20168;-96
2023/07/11 10:22:51;;;;;;;1.80;1.30;;;27.70;99.90;;;;;;6266162;23;20182;-96
2023/07/11 10:25:21;;;;;;;4.03;1.35;;;27.70;99.90;;;;;;6258403;23;20192;-96
2023/07/11 10:27:55;;;;;;;1.90;1.17;;;27.70;99.90;;;;;;6261572;23;20240;-96
2023/07/11 10:30:26;;;;;;;2.10;1.00;;;27.60;99.90;;;;;;6258107;23;20206;-95
2023/07/11 10:32:58;;;;;;;3.60;1.42;;;27.60;99.90;;;;;;6252530;23;20144;-96
2023/07/11 10:35:26;;;;;;;2.83;1.52;;;27.50;99.90;;;;;;6261526;23;20153;-96
2023/07/11 10:37:57;;;;;;;2.08;1.20;;;27.40;99.90;;;;;;6263018;23;20206;-96
2023/07/11 10:40:28;;;;;;;17.60;2.22;;;27.50;99.90;;;;;;6260028;23;20223;-95
2023/07/11 10:43:08;;;;;;;2.25;1.30;;;27.60;99.90;;;;;;6258434;23;20208;-96
2023/07/11 10:45:40;;;;;;;3.75;1.30;;;27.70;99.90;;;;;;6270559;23;20167;-96
2023/07/11 10:48:23;;;;;;;3.33;1.23;;;27.70;99.90;;;;;;6267215;23;20184;-96
2023/07/11 10:50:56;;;;;;;3.03;0.98;;;27.70;99.90;;;;;;6262204;23;20198;-96
2023/07/11 10:53:29;;;;;;;3.17;1.20;;;27.70;99.90;;;;;;6264764;23;20225;-96
2023/07/11 10:56:05;;;;;;;2.83;1.25;;;27.60;99.90;;;;;;6264292;23;20157;-96
2023/07/11 10:58:34;;;;;;;2.53;1.20;;;27.40;99.90;;;;;;6263477;23;20152;-96
2023/07/11 11:01:17;;;;;;;1.35;1.00;;;27.50;99.90;;;;;;6260427;23;20164;-96
2023/07/11 11:03:46;;;;;;;1.77;1.13;;;27.70;99.90;;;;;;6256244;22;20196;-96
2023/07/11 11:06:50;;;;;;;3.35;1.00;;;27.70;99.90;;;;;;6261490;23;20199;-96
2023/07/11 11:09:23;;;;;;;3.97;1.30;;;27.60;99.90;;;;;;6167332;23;20197;-96
2023/07/11 11:12:00;;;;;;;3.72;1.30;;;27.80;99.90;;;;;;6165283;23;20688;-96
2023/07/11 11:14:36;;;;;;;1.60;0.93;;;27.80;99.90;;;;;;6172394;23;20222;-96
2023/07/11 11:17:25;;;;;;;3.05;1.33;;;28.00;99.90;;;;;;6176958;23;20154;-96
2023/07/11 11:20:07;;;;;;;2.22;1.00;;;28.30;99.90;;;;;;6175846;23;20202;-96
2023/07/11 11:22:42;;;;;;;1.75;1.17;;;28.30;99.90;;;;;;6167583;23;20162;-96
2023/07/11 11:25:17;;;;;;;1.75;1.20;;;28.50;99.90;;;;;;6160777;23;20233;-96
2023/07/11 11:27:53;;;;;;;1.90;1.20;;;28.60;99.90;;;;;;6170346;23;20178;-96
2023/07/11 11:30:34;;;;;;;2.53;1.10;;;28.70;99.90;;;;;;6158182;23;20159;-96
2023/07/11 11:33:12;;;;;;;2.92;0.90;;;28.80;99.90;;;;;;6170689;23;20187;-96
2023/07/11 11:35:49;;;;;;;2.35;1.05;;;28.80;99.90;;;;;;6169812;23;20291;-96
2023/07/11 11:38:35;;;;;;;4.20;0.95;;;28.80;99.90;;;;;;6171475;23;20170;-96
2023/07/11 11:41:10;;;;;;;3.33;1.20;;;28.80;99.90;;;;;;6172621;23;20197;-96
2023/07/11 11:43:39;;;;;;;2.60;1.00;;;28.80;99.90;;;;;;6168949;23;20162;-96
2023/07/11 11:46:09;;;;;;;1.67;0.95;;;28.80;99.90;;;;;;6268364;23;20175;-96
2023/07/11 11:48:38;;;;;;;2.35;1.08;;;28.70;99.40;;;;;;6259988;23;20180;-96
2023/07/11 11:51:09;;;;;;;2.17;1.15;;;28.70;94.70;;;;;;6255580;23;20169;-96
2023/07/11 11:53:43;;;;;;;3.20;1.38;;;28.60;94.90;;;;;;6265085;23;20168;-96
2023/07/11 11:56:14;;;;;;;2.50;1.20;;;28.50;92.30;;;;;;6261596;23;20156;-96
2023/07/11 11:58:52;;;;;;;2.22;1.05;;;28.50;93.20;;;;;;6266714;23;20179;-96
2023/07/11 12:01:40;;;;;;;4.47;1.65;;;28.60;97.60;;;;;;6257847;23;20179;-96
2023/07/11 12:04:34;;;;;;;1.85;1.20;;;28.80;94.70;;;;;;6251281;22;20693;-96
2023/07/11 12:07:06;;;;;;;2.58;1.40;;;28.90;97.20;;;;;;6250221;23;20188;-96
2023/07/11 12:09:45;;;;;;;3.15;1.52;;;28.80;94.80;;;;;;6257235;23;20161;-96
2023/07/11 12:12:15;;;;;;;2.20;1.27;;;28.80;93.90;;;;;;6258238;23;20157;-96
2023/07/11 12:14:45;;;;;;;1.35;1.08;;;28.80;91.70;;;;;;6254479;23;20172;-96
2023/07/11 12:17:51;;;;;;;3.03;1.42;;;28.80;88.70;;;;;;6252543;23;20152;-96
2023/07/11 12:20:25;;;;;;;2.67;1.17;;;28.90;91.40;;;;;;6232091;23;20180;-96
2023/07/11 12:23:17;;;;;;;3.17;1.30;;;28.90;87.20;;;;;;6257682;23;20145;-96
2023/07/11 12:26:10;;;;;;;1.98;1.20;;;28.90;91.20;;;;;;6256977;23;20172;-96
2023/07/11 12:28:37;;;;;;;2.83;1.27;;;28.90;86.00;;;;;;6256191;23;20282;-96
2023/07/11 12:31:16;;;;;;;3.03;1.50;;;28.90;80.20;;;;;;6252830;23;20168;-96
2023/07/11 12:33:43;;;;;;;4.28;1.40;;;28.80;84.60;;;;;;6252905;23;20156;-96
2023/07/11 12:36:39;;;;;;;2.58;1.38;;;29.00;79.80;;;;;;6252872;23;20186;-96
2023/07/11 12:39:27;;;;;;;2.13;1.30;;;29.10;91.20;;;;;;6250004;23;20157;-96
2023/07/11 12:42:03;;;;;;;4.93;1.58;;;29.10;91.40;;;;;;6251647;23;20152;-96
2023/07/11 12:44:34;;;;;;;2.60;1.30;;;29.20;90.10;;;;;;6250538;23;20214;-96
2023/07/11 12:47:07;;;;;;;1.80;1.30;;;29.10;84.50;;;;;;6254839;23;20160;-96
2023/07/11 12:49:37;;;;;;;1.73;1.17;;;29.10;86.50;;;;;;6255386;23;20160;-96
2023/07/11 12:52:09;;;;;;;2.70;1.20;;;29.20;89.60;;;;;;6252615;23;20161;-96
2023/07/11 12:54:37;;;;;;;2.55;1.13;;;29.10;74.40;;;;;;6257712;23;20275;-96
2023/07/11 12:57:07;;;;;;;2.92;1.30;;;29.20;76.10;;;;;;6261203;23;20172;-96
2023/07/11 12:59:35;;;;;;;2.63;1.50;;;29.10;70.90;;;;;;6256684;23;20163;-96
2023/07/11 13:02:05;;;;;;;2.80;1.17;;;29.00;66.20;;;;;;6250158;23;20168;-96
2023/07/11 13:04:35;;;;;;;2.63;1.48;;;29.00;77.10;;;;;;6251843;22;20196;-96
2023/07/11 13:07:10;;;;;;;2.60;1.20;;;29.00;74.90;;;;;;6247662;23;20156;-96
2023/07/11 13:09:47;;;;;;;2.35;1.30;;;29.00;72.10;;;;;;6247960;23;20174;-96
2023/07/11 13:12:18;;;;;;;2.95;1.30;;;28.90;76.30;;;;;;6248744;23;20214;-96
2023/07/11 13:14:47;;;;;;;3.40;1.40;;;29.10;70.30;;;;;;6248888;23;20153;-96
2023/07/11 13:17:16;;;;;;;2.20;1.35;;;29.20;69.90;;;;;;6247539;23;20168;-95
2023/07/11 13:19:45;;;;;;;3.65;1.60;;;29.30;73.70;;;;;;6247864;23;20172;-96